Eastern, KY (41622)

5:04 PM EDT on August 20, 2014 (GMT -0400)
Middle Creek Battlefield Area | Change Station
CLOSE
Current Station
Personal Weather Station
Location: Prestonsburg, KY
Elevation: 728 ft
Nearby Weather Stations

Elev 728 ft 37.66 °N, 82.83 °W | Updated 22 seconds ago

Clear
Clear
84.0 °F
Feels Like 90 °F
N
0.0
Wind Variable Wind from North
Gusts 0.0 mph

Today
High -- | Low -- °F
--% Chance of Precip.
Yesterday
High -- | Low -- °F
Precip. -- in
6:51 AM 8:17 PM
Waning Crescent, 19% visible
Pressure 29.99 in
Visibility 10.0 miles
Clouds Clear
Heat Index 90 °F
Dew Point 73 °F
Humidity 69%
Rainfall 0.00 in
Snow Depth Not available.
UV 5 out of 12
Pollen 7.60 out of 12
Air Quality Not available.
Flu Activity Not available.
METAR KSJS 202055Z AUTO 28003KT 10SM CLR 29/21 A2999 RMK AO2 T02880214

More Conditions Fewer Conditions

Pressure 29.99 in
Visibility 10.0 miles
Clouds Clear
Heat Index 90 °F
Dew Point 73 °F
Humidity 69%
Rainfall 0.00 in
Snow Depth Not available.
UV 5 out of 12
Pollen 7.60 out of 12
Air Quality Not available.
Flu Activity Not available.
METAR KSJS 202055Z AUTO 28003KT 10SM CLR 29/21 A2999 RMK AO2 T02880214

More Conditions Fewer Conditions

10-Day Weather Forecast

Almanac

Astronomy

Aug. 20, 2014 Rise Set
Actual Time 6:51 AM EDT 8:17 PM EDT
Civil Twilight 6:23 AM EDT 8:44 PM EDT
Nautical Twilight 5:50 AM EDT 9:17 PM EDT
Astronomical Twilight 5:16 AM EDT 9:52 PM EDT
Moon 2:32 AM EDT 4:59 PM EDT
Length of Visible Light 14h 20m
Length of Day
13h 25m
Tomorrow will be 2m 11s shorter.
Waning Crescent, 19% of the Moon is Illuminated
Today
Waning Crescent
Aug 25
New
Sep 2
First Quarter
Sep 8
Full
Sep 15
Last Quarter

Today's Extremes

State Highs State Lows

Community

WunderPhotos

Upload Photos

1,745,758 photos uploaded!

WunderBlogs® & News

Nearby

Snow Depth

Station Depth Elevation
No new snow has been reported.

Earthquake Activity

City Distance Mag. Time & Date
No recent earthquake activity has been reported nearby.
Minimum magnitude displayed is 2.5.

Coastal Water Temperatures

Place Temperature
No Stations Reporting

Nearby Weather Stations